sensor_id;sensor_type;location;lat;lon;timestamp;temperature;humidity
20750;DHT22;10535;50.664;4.564;2024-03-25T00:02:00;3.60;99.90
20750;DHT22;10535;50.664;4.564;2024-03-25T00:04:25;3.60;99.90
20750;DHT22;10535;50.664;4.564;2024-03-25T00:06:51;3.50;99.90
20750;DHT22;10535;50.664;4.564;2024-03-25T00:09:18;3.40;99.90
20750;DHT22;10535;50.664;4.564;2024-03-25T00:11:44;3.40;99.90
20750;DHT22;10535;50.664;4.564;2024-03-25T00:14:09;3.50;99.90
20750;DHT22;10535;50.664;4.564;2024-03-25T00:16:35;3.50;99.90
20750;DHT22;10535;50.664;4.564;2024-03-25T00:19:01;3.50;99.90
20750;DHT22;10535;50.664;4.564;2024-03-25T00:21:27;3.40;99.90
20750;DHT22;10535;50.664;4.564;2024-03-25T00:23:52;3.20;99.90
20750;DHT22;10535;50.664;4.564;2024-03-25T00:26:18;3.10;99.90
20750;DHT22;10535;50.664;4.564;2024-03-25T00:28:44;3.10;99.90
20750;DHT22;10535;50.664;4.564;2024-03-25T00:31:10;3.10;99.90
20750;DHT22;10535;50.664;4.564;2024-03-25T00:33:35;3.10;99.90
20750;DHT22;10535;50.664;4.564;2024-03-25T00:36:01;3.10;99.90
20750;DHT22;10535;50.664;4.564;2024-03-25T00:38:27;3.00;99.90
20750;DHT22;10535;50.664;4.564;2024-03-25T00:40:53;3.00;99.90
20750;DHT22;10535;50.664;4.564;2024-03-25T00:43:18;2.90;99.90
20750;DHT22;10535;50.664;4.564;2024-03-25T00:45:45;2.90;99.90
20750;DHT22;10535;50.664;4.564;2024-03-25T00:48:12;2.90;99.90
20750;DHT22;10535;50.664;4.564;2024-03-25T00:50:37;2.90;99.90
20750;DHT22;10535;50.664;4.564;2024-03-25T00:53:03;2.90;99.90
20750;DHT22;10535;50.664;4.564;2024-03-25T00:55:29;2.90;99.90
20750;DHT22;10535;50.664;4.564;2024-03-25T00:57:54;2.90;99.90
20750;DHT22;10535;50.664;4.564;2024-03-25T01:00:20;2.90;99.90
20750;DHT22;10535;50.664;4.564;2024-03-25T01:02:46;2.80;99.90
20750;DHT22;10535;50.664;4.564;2024-03-25T01:05:12;2.80;99.90
20750;DHT22;10535;50.664;4.564;2024-03-25T01:07:38;2.90;99.90
20750;DHT22;10535;50.664;4.564;2024-03-25T01:10:05;2.90;99.90
20750;DHT22;10535;50.664;4.564;2024-03-25T01:12:31;2.90;99.90
20750;DHT22;10535;50.664;4.564;2024-03-25T01:14:57;2.90;99.90
20750;DHT22;10535;50.664;4.564;2024-03-25T01:17:23;2.90;99.90
20750;DHT22;10535;50.664;4.564;2024-03-25T01:19:49;2.90;99.90
20750;DHT22;10535;50.664;4.564;2024-03-25T01:22:14;2.80;99.90
20750;DHT22;10535;50.664;4.564;2024-03-25T01:24:40;2.70;99.90
20750;DHT22;10535;50.664;4.564;2024-03-25T01:27:05;2.80;99.90
20750;DHT22;10535;50.664;4.564;2024-03-25T01:29:32;2.70;99.90
20750;DHT22;10535;50.664;4.564;2024-03-25T01:31:58;2.60;99.90
20750;DHT22;10535;50.664;4.564;2024-03-25T01:34:25;2.70;99.90
20750;DHT22;10535;50.664;4.564;2024-03-25T01:36:51;2.50;99.90
20750;DHT22;10535;50.664;4.564;2024-03-25T01:39:17;2.50;99.90
20750;DHT22;10535;50.664;4.564;2024-03-25T01:41:44;2.60;99.90
20750;DHT22;10535;50.664;4.564;2024-03-25T01:44:10;2.80;99.90
20750;DHT22;10535;50.664;4.564;2024-03-25T01:46:36;2.90;99.90
20750;DHT22;10535;50.664;4.564;2024-03-25T01:49:02;2.90;99.90
20750;DHT22;10535;50.664;4.564;2024-03-25T01:51:28;2.90;99.90
20750;DHT22;10535;50.664;4.564;2024-03-25T01:53:54;2.70;99.90
20750;DHT22;10535;50.664;4.564;2024-03-25T01:56:21;2.80;99.90
20750;DHT22;10535;50.664;4.564;2024-03-25T01:58:49;2.80;99.90
20750;DHT22;10535;50.664;4.564;2024-03-25T02:01:15;2.90;99.90
20750;DHT22;10535;50.664;4.564;2024-03-25T02:03:42;3.00;99.90
20750;DHT22;10535;50.664;4.564;2024-03-25T02:06:13;2.90;99.90
20750;DHT22;10535;50.664;4.564;2024-03-25T02:08:40;2.70;99.90
20750;DHT22;10535;50.664;4.564;2024-03-25T02:11:07;2.70;99.90
20750;DHT22;10535;50.664;4.564;2024-03-25T02:13:32;2.60;99.90
20750;DHT22;10535;50.664;4.564;2024-03-25T02:15:58;2.60;99.90
20750;DHT22;10535;50.664;4.564;2024-03-25T02:18:24;2.70;99.90
20750;DHT22;10535;50.664;4.564;2024-03-25T02:20:50;2.80;99.90
20750;DHT22;10535;50.664;4.564;2024-03-25T02:23:16;3.00;99.90
20750;DHT22;10535;50.664;4.564;2024-03-25T02:25:42;3.20;99.90
20750;DHT22;10535;50.664;4.564;2024-03-25T02:28:09;3.40;99.90
20750;DHT22;10535;50.664;4.564;2024-03-25T02:30:34;3.40;99.90
20750;DHT22;10535;50.664;4.564;2024-03-25T02:33:02;3.40;99.90
20750;DHT22;10535;50.664;4.564;2024-03-25T02:35:28;3.40;99.90
20750;DHT22;10535;50.664;4.564;2024-03-25T02:37:54;3.50;99.90
20750;DHT22;10535;50.664;4.564;2024-03-25T02:40:20;3.60;99.90
20750;DHT22;10535;50.664;4.564;2024-03-25T02:42:48;3.50;99.90
20750;DHT22;10535;50.664;4.564;2024-03-25T02:45:14;3.30;99.90
20750;DHT22;10535;50.664;4.564;2024-03-25T02:47:39;3.30;99.90
20750;DHT22;10535;50.664;4.564;2024-03-25T02:50:05;3.30;99.90
20750;DHT22;10535;50.664;4.564;2024-03-25T02:52:31;3.20;99.90
20750;DHT22;10535;50.664;4.564;2024-03-25T02:54:56;3.30;99.90
20750;DHT22;10535;50.664;4.564;2024-03-25T02:57:23;3.30;99.90
20750;DHT22;10535;50.664;4.564;2024-03-25T02:59:49;3.40;99.90
20750;DHT22;10535;50.664;4.564;2024-03-25T03:02:14;3.40;99.90
20750;DHT22;10535;50.664;4.564;2024-03-25T03:04:40;3.40;99.90
20750;DHT22;10535;50.664;4.564;2024-03-25T03:07:06;3.50;99.90
20750;DHT22;10535;50.664;4.564;2024-03-25T03:09:31;3.50;99.90
20750;DHT22;10535;50.664;4.564;2024-03-25T03:11:57;3.50;99.90
20750;DHT22;10535;50.664;4.564;2024-03-25T03:14:26;3.50;99.90
20750;DHT22;10535;50.664;4.564;2024-03-25T03:16:52;3.60;99.90
20750;DHT22;10535;50.664;4.564;2024-03-25T03:19:25;3.70;99.90
20750;DHT22;10535;50.664;4.564;2024-03-25T03:21:51;3.70;99.90
20750;DHT22;10535;50.664;4.564;2024-03-25T03:24:17;3.70;99.90
20750;DHT22;10535;50.664;4.564;2024-03-25T03:26:44;3.80;99.90
20750;DHT22;10535;50.664;4.564;2024-03-25T03:29:09;3.90;99.90
20750;DHT22;10535;50.664;4.564;2024-03-25T03:31:36;3.90;99.90
20750;DHT22;10535;50.664;4.564;2024-03-25T03:34:02;3.80;99.90
20750;DHT22;10535;50.664;4.564;2024-03-25T03:36:28;3.90;99.90
20750;DHT22;10535;50.664;4.564;2024-03-25T03:38:55;4.00;99.90
20750;DHT22;10535;50.664;4.564;2024-03-25T03:41:21;4.00;99.90
20750;DHT22;10535;50.664;4.564;2024-03-25T03:43:54;3.90;99.90
20750;DHT22;10535;50.664;4.564;2024-03-25T03:46:22;3.90;99.90
20750;DHT22;10535;50.664;4.564;2024-03-25T03:48:48;3.90;99.90
20750;DHT22;10535;50.664;4.564;2024-03-25T03:51:14;3.90;99.90
20750;DHT22;10535;50.664;4.564;2024-03-25T03:53:40;3.80;99.90
20750;DHT22;10535;50.664;4.564;2024-03-25T03:56:06;3.70;99.90
20750;DHT22;10535;50.664;4.564;2024-03-25T03:58:33;3.60;99.90
20750;DHT22;10535;50.664;4.564;2024-03-25T04:01:00;3.60;99.90
20750;DHT22;10535;50.664;4.564;2024-03-25T04:03:25;3.60;99.90
20750;DHT22;10535;50.664;4.564;2024-03-25T04:05:52;3.50;99.90
20750;DHT22;10535;50.664;4.564;2024-03-25T04:08:26;3.50;99.90
20750;DHT22;10535;50.664;4.564;2024-03-25T04:10:54;3.40;99.90
20750;DHT22;10535;50.664;4.564;2024-03-25T04:13:20;3.30;99.90
20750;DHT22;10535;50.664;4.564;2024-03-25T04:15:46;3.20;99.90
20750;DHT22;10535;50.664;4.564;2024-03-25T04:18:13;3.20;99.90
20750;DHT22;10535;50.664;4.564;2024-03-25T04:20:41;3.20;99.90
20750;DHT22;10535;50.664;4.564;2024-03-25T04:23:07;3.10;99.90
20750;DHT22;10535;50.664;4.564;2024-03-25T04:25:34;3.20;99.90
20750;DHT22;10535;50.664;4.564;2024-03-25T04:28:06;3.20;99.90
20750;DHT22;10535;50.664;4.564;2024-03-25T04:30:33;3.30;99.90
20750;DHT22;10535;50.664;4.564;2024-03-25T04:32:59;3.10;99.90
20750;DHT22;10535;50.664;4.564;2024-03-25T04:35:30;2.90;99.90
20750;DHT22;10535;50.664;4.564;2024-03-25T04:38:33;2.90;99.90
20750;DHT22;10535;50.664;4.564;2024-03-25T04:41:25;3.20;99.90
20750;DHT22;10535;50.664;4.564;2024-03-25T04:43:51;2.90;99.90
20750;DHT22;10535;50.664;4.564;2024-03-25T04:46:16;2.80;99.90
20750;DHT22;10535;50.664;4.564;2024-03-25T04:48:43;2.80;99.90
20750;DHT22;10535;50.664;4.564;2024-03-25T04:51:16;2.90;99.90
20750;DHT22;10535;50.664;4.564;2024-03-25T04:53:44;2.90;99.90
20750;DHT22;10535;50.664;4.564;2024-03-25T04:56:17;2.90;99.90
20750;DHT22;10535;50.664;4.564;2024-03-25T04:58:43;2.70;99.90
20750;DHT22;10535;50.664;4.564;2024-03-25T05:01:11;2.70;99.90
20750;DHT22;10535;50.664;4.564;2024-03-25T05:03:37;2.70;99.90
20750;DHT22;10535;50.664;4.564;2024-03-25T05:06:04;2.70;99.90
20750;DHT22;10535;50.664;4.564;2024-03-25T05:08:31;2.60;99.90
20750;DHT22;10535;50.664;4.564;2024-03-25T05:10:58;2.60;99.90
20750;DHT22;10535;50.664;4.564;2024-03-25T05:13:24;2.70;99.90
20750;DHT22;10535;50.664;4.564;2024-03-25T05:15:51;2.70;99.90
20750;DHT22;10535;50.664;4.564;2024-03-25T05:18:18;2.60;99.90
20750;DHT22;10535;50.664;4.564;2024-03-25T05:20:44;2.70;99.90
20750;DHT22;10535;50.664;4.564;2024-03-25T05:23:10;2.70;99.90
20750;DHT22;10535;50.664;4.564;2024-03-25T05:25:36;2.70;99.90
20750;DHT22;10535;50.664;4.564;2024-03-25T05:28:03;2.80;99.90
20750;DHT22;10535;50.664;4.564;2024-03-25T05:30:37;2.80;99.90
20750;DHT22;10535;50.664;4.564;2024-03-25T05:33:08;3.00;99.90
20750;DHT22;10535;50.664;4.564;2024-03-25T05:35:38;2.80;99.90
20750;DHT22;10535;50.664;4.564;2024-03-25T05:38:29;2.70;99.90
20750;DHT22;10535;50.664;4.564;2024-03-25T05:40:57;2.80;99.90
20750;DHT22;10535;50.664;4.564;2024-03-25T05:43:23;2.90;99.90
20750;DHT22;10535;50.664;4.564;2024-03-25T05:45:53;2.90;99.90
20750;DHT22;10535;50.664;4.564;2024-03-25T05:48:20;3.00;99.90
20750;DHT22;10535;50.664;4.564;2024-03-25T05:50:46;3.00;99.90
20750;DHT22;10535;50.664;4.564;2024-03-25T05:53:12;3.10;99.90
20750;DHT22;10535;50.664;4.564;2024-03-25T05:55:39;3.20;99.90
20750;DHT22;10535;50.664;4.564;2024-03-25T05:58:05;3.40;99.90
20750;DHT22;10535;50.664;4.564;2024-03-25T06:00:33;3.40;99.90
20750;DHT22;10535;50.664;4.564;2024-03-25T06:03:00;3.70;99.90
20750;DHT22;10535;50.664;4.564;2024-03-25T06:05:32;3.70;99.90
20750;DHT22;10535;50.664;4.564;2024-03-25T06:08:07;4.00;99.90
20750;DHT22;10535;50.664;4.564;2024-03-25T06:10:47;4.30;99.90
20750;DHT22;10535;50.664;4.564;2024-03-25T06:13:16;4.40;99.90
20750;DHT22;10535;50.664;4.564;2024-03-25T06:15:42;4.40;99.90
20750;DHT22;10535;50.664;4.564;2024-03-25T06:18:07;4.70;99.90
20750;DHT22;10535;50.664;4.564;2024-03-25T06:20:33;4.90;99.90
20750;DHT22;10535;50.664;4.564;2024-03-25T06:23:01;5.00;99.90
20750;DHT22;10535;50.664;4.564;2024-03-25T06:25:27;5.00;99.90
20750;DHT22;10535;50.664;4.564;2024-03-25T06:27:54;5.20;99.90
20750;DHT22;10535;50.664;4.564;2024-03-25T06:30:20;5.30;99.90
20750;DHT22;10535;50.664;4.564;2024-03-25T06:33:04;5.20;99.90
20750;DHT22;10535;50.664;4.564;2024-03-25T06:35:49;5.40;99.90
20750;DHT22;10535;50.664;4.564;2024-03-25T06:38:14;5.50;99.90
20750;DHT22;10535;50.664;4.564;2024-03-25T06:40:40;5.80;99.90
20750;DHT22;10535;50.664;4.564;2024-03-25T06:43:06;6.00;99.90
20750;DHT22;10535;50.664;4.564;2024-03-25T06:45:35;6.20;99.90
20750;DHT22;10535;50.664;4.564;2024-03-25T06:48:01;6.40;99.90
20750;DHT22;10535;50.664;4.564;2024-03-25T06:50:54;6.60;99.90
20750;DHT22;10535;50.664;4.564;2024-03-25T06:53:23;6.70;99.90
20750;DHT22;10535;50.664;4.564;2024-03-25T06:55:59;6.90;99.90
20750;DHT22;10535;50.664;4.564;2024-03-25T06:58:26;6.90;99.90
20750;DHT22;10535;50.664;4.564;2024-03-25T07:00:54;6.90;99.90
20750;DHT22;10535;50.664;4.564;2024-03-25T07:03:22;7.10;99.90
20750;DHT22;10535;50.664;4.564;2024-03-25T07:05:50;7.20;99.90
20750;DHT22;10535;50.664;4.564;2024-03-25T07:08:20;7.10;99.90
20750;DHT22;10535;50.664;4.564;2024-03-25T07:10:46;7.10;99.90
20750;DHT22;10535;50.664;4.564;2024-03-25T07:13:13;6.90;99.90
20750;DHT22;10535;50.664;4.564;2024-03-25T07:15:40;7.00;99.90
20750;DHT22;10535;50.664;4.564;2024-03-25T07:18:07;7.00;99.90
20750;DHT22;10535;50.664;4.564;2024-03-25T07:20:36;7.10;99.90
20750;DHT22;10535;50.664;4.564;2024-03-25T07:23:01;7.00;99.90
20750;DHT22;10535;50.664;4.564;2024-03-25T07:25:28;7.00;99.90
20750;DHT22;10535;50.664;4.564;2024-03-25T07:27:55;7.20;99.90
20750;DHT22;10535;50.664;4.564;2024-03-25T07:30:21;7.10;99.90
20750;DHT22;10535;50.664;4.564;2024-03-25T07:32:57;7.30;99.90
20750;DHT22;10535;50.664;4.564;2024-03-25T07:35:24;7.30;99.90
20750;DHT22;10535;50.664;4.564;2024-03-25T07:37:50;7.50;99.90
20750;DHT22;10535;50.664;4.564;2024-03-25T07:40:20;7.50;99.90
20750;DHT22;10535;50.664;4.564;2024-03-25T07:42:48;7.70;99.90
20750;DHT22;10535;50.664;4.564;2024-03-25T07:45:14;7.80;99.90
20750;DHT22;10535;50.664;4.564;2024-03-25T07:47:42;7.80;99.90
20750;DHT22;10535;50.664;4.564;2024-03-25T07:50:17;8.10;99.90
20750;DHT22;10535;50.664;4.564;2024-03-25T07:52:43;8.20;99.90
20750;DHT22;10535;50.664;4.564;2024-03-25T07:55:09;8.30;99.90
20750;DHT22;10535;50.664;4.564;2024-03-25T07:57:36;8.50;99.90
20750;DHT22;10535;50.664;4.564;2024-03-25T08:00:04;8.40;99.90
20750;DHT22;10535;50.664;4.564;2024-03-25T08:02:34;8.60;99.90
20750;DHT22;10535;50.664;4.564;2024-03-25T08:05:00;8.80;99.90
20750;DHT22;10535;50.664;4.564;2024-03-25T08:07:29;8.90;99.90
20750;DHT22;10535;50.664;4.564;2024-03-25T08:10:16;8.90;99.90
20750;DHT22;10535;50.664;4.564;2024-03-25T08:12:44;8.90;99.90
20750;DHT22;10535;50.664;4.564;2024-03-25T08:15:29;8.80;99.90
20750;DHT22;10535;50.664;4.564;2024-03-25T08:18:05;8.80;99.90
20750;DHT22;10535;50.664;4.564;2024-03-25T08:21:14;8.90;99.90
20750;DHT22;10535;50.664;4.564;2024-03-25T08:24:25;9.10;99.90
20750;DHT22;10535;50.664;4.564;2024-03-25T08:27:33;9.20;99.90
20750;DHT22;10535;50.664;4.564;2024-03-25T08:30:07;8.90;99.90
20750;DHT22;10535;50.664;4.564;2024-03-25T08:32:54;8.90;99.90
20750;DHT22;10535;50.664;4.564;2024-03-25T08:35:39;9.10;99.90
20750;DHT22;10535;50.664;4.564;2024-03-25T08:38:48;9.50;99.90
20750;DHT22;10535;50.664;4.564;2024-03-25T08:41:38;9.60;99.90
20750;DHT22;10535;50.664;4.564;2024-03-25T08:44:23;9.40;99.90
20750;DHT22;10535;50.664;4.564;2024-03-25T08:46:52;9.40;99.90
20750;DHT22;10535;50.664;4.564;2024-03-25T08:49:26;9.60;99.90
20750;DHT22;10535;50.664;4.564;2024-03-25T08:54:47;9.50;99.90
20750;DHT22;10535;50.664;4.564;2024-03-25T08:57:37;9.70;99.90
20750;DHT22;10535;50.664;4.564;2024-03-25T09:00:31;9.60;99.90
20750;DHT22;10535;50.664;4.564;2024-03-25T09:03:22;9.70;99.90
20750;DHT22;10535;50.664;4.564;2024-03-25T09:05:55;9.70;99.90
20750;DHT22;10535;50.664;4.564;2024-03-25T09:08:50;9.70;99.90
20750;DHT22;10535;50.664;4.564;2024-03-25T09:14:32;10.00;99.90
20750;DHT22;10535;50.664;4.564;2024-03-25T09:16:58;10.30;99.90
20750;DHT22;10535;50.664;4.564;2024-03-25T09:19:24;10.30;99.90
20750;DHT22;10535;50.664;4.564;2024-03-25T09:21:50;10.50;99.90
20750;DHT22;10535;50.664;4.564;2024-03-25T09:24:16;10.50;99.90
20750;DHT22;10535;50.664;4.564;2024-03-25T09:26:43;10.30;99.90
20750;DHT22;10535;50.664;4.564;2024-03-25T09:29:08;10.50;99.90
20750;DHT22;10535;50.664;4.564;2024-03-25T09:31:34;10.60;99.90
20750;DHT22;10535;50.664;4.564;2024-03-25T09:33:59;10.70;99.90
20750;DHT22;10535;50.664;4.564;2024-03-25T09:36:25;11.00;99.90
20750;DHT22;10535;50.664;4.564;2024-03-25T09:38:51;11.00;99.90
20750;DHT22;10535;50.664;4.564;2024-03-25T09:41:18;11.00;99.90
20750;DHT22;10535;50.664;4.564;2024-03-25T09:43:48;11.30;99.90
20750;DHT22;10535;50.664;4.564;2024-03-25T09:46:17;11.30;99.90
20750;DHT22;10535;50.664;4.564;2024-03-25T09:48:42;11.00;99.90
20750;DHT22;10535;50.664;4.564;2024-03-25T09:51:09;11.10;99.90
20750;DHT22;10535;50.664;4.564;2024-03-25T09:53:35;10.90;99.90
20750;DHT22;10535;50.664;4.564;2024-03-25T09:56:01;11.00;99.90
20750;DHT22;10535;50.664;4.564;2024-03-25T09:58:27;11.20;99.90
20750;DHT22;10535;50.664;4.564;2024-03-25T10:00:54;11.10;99.90
20750;DHT22;10535;50.664;4.564;2024-03-25T10:03:21;11.20;99.90
20750;DHT22;10535;50.664;4.564;2024-03-25T10:05:47;11.40;99.90
20750;DHT22;10535;50.664;4.564;2024-03-25T10:08:13;11.50;99.90
20750;DHT22;10535;50.664;4.564;2024-03-25T10:10:38;11.50;99.90
20750;DHT22;10535;50.664;4.564;2024-03-25T10:13:04;11.60;99.90
20750;DHT22;10535;50.664;4.564;2024-03-25T10:15:30;11.60;99.90
20750;DHT22;10535;50.664;4.564;2024-03-25T10:17:56;11.50;99.90
20750;DHT22;10535;50.664;4.564;2024-03-25T10:20:22;11.50;99.90
20750;DHT22;10535;50.664;4.564;2024-03-25T10:22:48;11.40;99.90
20750;DHT22;10535;50.664;4.564;2024-03-25T10:25:28;11.60;99.90
20750;DHT22;10535;50.664;4.564;2024-03-25T10:28:01;11.80;99.90
20750;DHT22;10535;50.664;4.564;2024-03-25T10:30:28;11.70;99.90
20750;DHT22;10535;50.664;4.564;2024-03-25T10:33:12;11.80;99.90
20750;DHT22;10535;50.664;4.564;2024-03-25T10:35:39;11.80;99.90
20750;DHT22;10535;50.664;4.564;2024-03-25T10:38:07;12.10;99.90
20750;DHT22;10535;50.664;4.564;2024-03-25T10:40:37;12.20;99.90
20750;DHT22;10535;50.664;4.564;2024-03-25T10:43:08;12.30;99.90
20750;DHT22;10535;50.664;4.564;2024-03-25T10:45:38;12.40;99.90
20750;DHT22;10535;50.664;4.564;2024-03-25T10:48:17;12.30;99.90
20750;DHT22;10535;50.664;4.564;2024-03-25T10:50:46;12.20;99.90
20750;DHT22;10535;50.664;4.564;2024-03-25T10:53:14;12.10;99.90
20750;DHT22;10535;50.664;4.564;2024-03-25T10:55:43;12.50;99.90
20750;DHT22;10535;50.664;4.564;2024-03-25T10:58:10;12.50;99.90
20750;DHT22;10535;50.664;4.564;2024-03-25T11:00:37;12.60;99.90
20750;DHT22;10535;50.664;4.564;2024-03-25T11:03:04;12.60;99.90
20750;DHT22;10535;50.664;4.564;2024-03-25T11:05:31;12.70;99.90
20750;DHT22;10535;50.664;4.564;2024-03-25T11:07:56;12.60;99.90
20750;DHT22;10535;50.664;4.564;2024-03-25T11:10:29;12.50;99.90
20750;DHT22;10535;50.664;4.564;2024-03-25T11:12:56;12.60;99.90
20750;DHT22;10535;50.664;4.564;2024-03-25T11:15:22;12.70;99.90
20750;DHT22;10535;50.664;4.564;2024-03-25T11:17:51;12.90;99.90
20750;DHT22;10535;50.664;4.564;2024-03-25T11:20:18;12.90;99.90
20750;DHT22;10535;50.664;4.564;2024-03-25T11:22:51;12.80;99.90
20750;DHT22;10535;50.664;4.564;2024-03-25T11:25:17;12.70;99.90
20750;DHT22;10535;50.664;4.564;2024-03-25T11:27:45;12.60;99.90
20750;DHT22;10535;50.664;4.564;2024-03-25T11:30:11;12.60;99.90
20750;DHT22;10535;50.664;4.564;2024-03-25T11:32:54;12.60;99.90
20750;DHT22;10535;50.664;4.564;2024-03-25T11:35:20;12.80;99.90
20750;DHT22;10535;50.664;4.564;2024-03-25T11:37:47;13.10;99.90
20750;DHT22;10535;50.664;4.564;2024-03-25T11:40:13;13.10;99.90
20750;DHT22;10535;50.664;4.564;2024-03-25T11:42:43;13.30;99.90
20750;DHT22;10535;50.664;4.564;2024-03-25T11:45:18;13.60;99.90
20750;DHT22;10535;50.664;4.564;2024-03-25T11:47:47;13.80;99.90
20750;DHT22;10535;50.664;4.564;2024-03-25T11:50:18;14.10;99.90
20750;DHT22;10535;50.664;4.564;2024-03-25T11:52:44;14.40;99.90
20750;DHT22;10535;50.664;4.564;2024-03-25T11:55:10;14.30;99.90
20750;DHT22;10535;50.664;4.564;2024-03-25T11:57:40;14.00;99.90
20750;DHT22;10535;50.664;4.564;2024-03-25T12:00:08;14.10;99.90
20750;DHT22;10535;50.664;4.564;2024-03-25T12:02:37;14.40;99.90
20750;DHT22;10535;50.664;4.564;2024-03-25T12:05:05;14.60;99.90
20750;DHT22;10535;50.664;4.564;2024-03-25T12:07:32;14.90;99.90
20750;DHT22;10535;50.664;4.564;2024-03-25T12:09:58;15.20;99.90
20750;DHT22;10535;50.664;4.564;2024-03-25T12:12:42;15.10;99.90
20750;DHT22;10535;50.664;4.564;2024-03-25T12:15:09;14.90;99.90
20750;DHT22;10535;50.664;4.564;2024-03-25T12:17:36;14.60;99.90
20750;DHT22;10535;50.664;4.564;2024-03-25T12:22:33;14.30;99.90
20750;DHT22;10535;50.664;4.564;2024-03-25T12:25:00;14.20;99.90
20750;DHT22;10535;50.664;4.564;2024-03-25T12:27:28;14.30;99.90
20750;DHT22;10535;50.664;4.564;2024-03-25T12:30:05;14.40;99.90
20750;DHT22;10535;50.664;4.564;2024-03-25T12:32:42;14.50;99.90
20750;DHT22;10535;50.664;4.564;2024-03-25T12:35:12;14.30;99.90
20750;DHT22;10535;50.664;4.564;2024-03-25T12:37:41;14.40;99.90
20750;DHT22;10535;50.664;4.564;2024-03-25T12:40:10;14.40;99.90
20750;DHT22;10535;50.664;4.564;2024-03-25T12:42:36;14.20;99.90
20750;DHT22;10535;50.664;4.564;2024-03-25T12:45:03;14.00;99.90
20750;DHT22;10535;50.664;4.564;2024-03-25T12:47:30;14.10;99.90
20750;DHT22;10535;50.664;4.564;2024-03-25T12:49:57;13.90;99.90
20750;DHT22;10535;50.664;4.564;2024-03-25T12:52:22;13.80;99.90
20750;DHT22;10535;50.664;4.564;2024-03-25T12:54:48;13.70;99.90
20750;DHT22;10535;50.664;4.564;2024-03-25T12:57:14;13.40;99.90
20750;DHT22;10535;50.664;4.564;2024-03-25T12:59:40;13.50;99.90
20750;DHT22;10535;50.664;4.564;2024-03-25T13:02:08;13.50;99.90
20750;DHT22;10535;50.664;4.564;2024-03-25T13:04:34;13.50;99.90
20750;DHT22;10535;50.664;4.564;2024-03-25T13:07:03;13.50;99.90
20750;DHT22;10535;50.664;4.564;2024-03-25T13:09:28;13.70;99.90
20750;DHT22;10535;50.664;4.564;2024-03-25T13:11:56;13.70;99.90
20750;DHT22;10535;50.664;4.564;2024-03-25T13:14:21;13.80;99.90
20750;DHT22;10535;50.664;4.564;2024-03-25T13:16:48;13.90;99.90
20750;DHT22;10535;50.664;4.564;2024-03-25T13:19:13;14.00;99.90
20750;DHT22;10535;50.664;4.564;2024-03-25T13:21:39;13.80;99.90
20750;DHT22;10535;50.664;4.564;2024-03-25T13:24:05;14.20;99.90
20750;DHT22;10535;50.664;4.564;2024-03-25T13:26:33;14.30;99.90
20750;DHT22;10535;50.664;4.564;2024-03-25T13:29:00;14.10;99.90
20750;DHT22;10535;50.664;4.564;2024-03-25T13:31:26;13.80;99.90
20750;DHT22;10535;50.664;4.564;2024-03-25T13:33:51;13.60;99.90
20750;DHT22;10535;50.664;4.564;2024-03-25T13:36:17;13.60;99.90
20750;DHT22;10535;50.664;4.564;2024-03-25T13:38:43;13.80;99.90
20750;DHT22;10535;50.664;4.564;2024-03-25T13:41:09;13.80;99.90
20750;DHT22;10535;50.664;4.564;2024-03-25T13:43:35;13.90;99.90
20750;DHT22;10535;50.664;4.564;2024-03-25T13:46:01;14.20;99.90
20750;DHT22;10535;50.664;4.564;2024-03-25T13:48:26;14.30;99.90
20750;DHT22;10535;50.664;4.564;2024-03-25T13:50:55;14.50;99.90
20750;DHT22;10535;50.664;4.564;2024-03-25T13:53:21;14.70;99.90
20750;DHT22;10535;50.664;4.564;2024-03-25T13:55:50;14.60;99.90
20750;DHT22;10535;50.664;4.564;2024-03-25T13:58:16;14.30;99.90
20750;DHT22;10535;50.664;4.564;2024-03-25T14:00:43;14.00;99.90
20750;DHT22;10535;50.664;4.564;2024-03-25T14:03:10;14.00;99.90
20750;DHT22;10535;50.664;4.564;2024-03-25T14:05:41;13.90;99.90
20750;DHT22;10535;50.664;4.564;2024-03-25T14:08:12;13.90;99.90
20750;DHT22;10535;50.664;4.564;2024-03-25T14:10:43;14.00;99.90
20750;DHT22;10535;50.664;4.564;2024-03-25T14:13:12;14.00;99.90
20750;DHT22;10535;50.664;4.564;2024-03-25T14:15:38;14.10;99.90
20750;DHT22;10535;50.664;4.564;2024-03-25T14:18:03;14.40;99.90
20750;DHT22;10535;50.664;4.564;2024-03-25T14:20:30;14.80;99.90
20750;DHT22;10535;50.664;4.564;2024-03-25T14:22:55;15.00;99.90
20750;DHT22;10535;50.664;4.564;2024-03-25T14:25:21;14.80;99.90
20750;DHT22;10535;50.664;4.564;2024-03-25T14:27:47;14.60;99.90
20750;DHT22;10535;50.664;4.564;2024-03-25T14:30:38;14.40;99.90
20750;DHT22;10535;50.664;4.564;2024-03-25T14:33:05;14.00;99.90
20750;DHT22;10535;50.664;4.564;2024-03-25T14:35:32;13.70;99.90
20750;DHT22;10535;50.664;4.564;2024-03-25T14:37:58;13.50;99.90
20750;DHT22;10535;50.664;4.564;2024-03-25T14:40:24;13.30;99.90
20750;DHT22;10535;50.664;4.564;2024-03-25T14:42:50;13.20;99.90
20750;DHT22;10535;50.664;4.564;2024-03-25T14:45:18;13.20;99.90
20750;DHT22;10535;50.664;4.564;2024-03-25T14:47:51;13.30;99.90
20750;DHT22;10535;50.664;4.564;2024-03-25T14:50:16;13.30;99.90
20750;DHT22;10535;50.664;4.564;2024-03-25T14:52:42;13.40;99.90
20750;DHT22;10535;50.664;4.564;2024-03-25T14:55:09;13.40;99.90
20750;DHT22;10535;50.664;4.564;2024-03-25T14:57:36;13.60;99.90
20750;DHT22;10535;50.664;4.564;2024-03-25T15:00:03;13.50;99.90
20750;DHT22;10535;50.664;4.564;2024-03-25T15:02:30;13.50;99.90
20750;DHT22;10535;50.664;4.564;2024-03-25T15:04:57;13.50;99.90
20750;DHT22;10535;50.664;4.564;2024-03-25T15:07:23;13.70;99.90
20750;DHT22;10535;50.664;4.564;2024-03-25T15:09:49;13.80;99.90
20750;DHT22;10535;50.664;4.564;2024-03-25T15:12:29;13.60;99.90
20750;DHT22;10535;50.664;4.564;2024-03-25T15:14:54;13.50;99.90
20750;DHT22;10535;50.664;4.564;2024-03-25T15:17:20;13.40;99.90
20750;DHT22;10535;50.664;4.564;2024-03-25T15:19:52;13.40;99.90
20750;DHT22;10535;50.664;4.564;2024-03-25T15:22:36;13.20;99.90
20750;DHT22;10535;50.664;4.564;2024-03-25T15:25:04;13.10;99.90
20750;DHT22;10535;50.664;4.564;2024-03-25T15:27:30;13.10;99.90
20750;DHT22;10535;50.664;4.564;2024-03-25T15:30:01;13.30;99.90
20750;DHT22;10535;50.664;4.564;2024-03-25T15:32:27;13.20;99.90
20750;DHT22;10535;50.664;4.564;2024-03-25T15:34:56;13.30;99.90
20750;DHT22;10535;50.664;4.564;2024-03-25T15:37:22;13.40;99.90
20750;DHT22;10535;50.664;4.564;2024-03-25T15:39:48;13.40;99.90
20750;DHT22;10535;50.664;4.564;2024-03-25T15:42:18;13.50;99.90
20750;DHT22;10535;50.664;4.564;2024-03-25T15:45:04;13.40;99.90
20750;DHT22;10535;50.664;4.564;2024-03-25T15:47:30;13.00;99.90
20750;DHT22;10535;50.664;4.564;2024-03-25T15:49:55;13.10;99.90
20750;DHT22;10535;50.664;4.564;2024-03-25T15:52:21;13.10;99.90
20750;DHT22;10535;50.664;4.564;2024-03-25T15:54:47;13.20;99.90
20750;DHT22;10535;50.664;4.564;2024-03-25T15:57:16;13.20;99.90
20750;DHT22;10535;50.664;4.564;2024-03-25T15:59:42;13.20;99.90